Time;durP1;ratioP1;P1;durP2;ratioP2;P2;SDS_P1;SDS_P2;PMS_P1;PMS_P2;Temp;Humidity;BMP_temperature;BMP_pressure;BME280_temperature;BME280_humidity;BME280_pressure;Samples;Min_cycle;Max_cycle;Signal;HPM_P1;HPM_P2
2021/06/05 00:01:46;;;;;;;22.52;20.50;;;;;;;;;;5098608;28;20394;-81
2021/06/05 00:04:12;;;;;;;22.75;20.65;;;;;;;;;;5097554;28;21178;-80
2021/06/05 00:06:40;;;;;;;22.20;20.00;;;;;;;;;;5096991;28;20401;-80
2021/06/05 00:09:09;;;;;;;23.40;21.23;;;;;;;;;;5102420;28;20405;-80
2021/06/05 00:11:36;;;;;;;23.10;20.90;;;;;;;;;;5100005;28;20398;-81
2021/06/05 00:14:06;;;;;;;23.47;21.27;;;;;;;;;;5099208;28;20419;-79
2021/06/05 00:16:36;;;;;;;24.13;21.83;;;;;;;;;;5100444;28;20394;-80
2021/06/05 00:19:03;;;;;;;23.65;21.38;;;;;;;;;;5096991;28;20406;-80
2021/06/05 00:21:29;;;;;;;24.15;21.88;;;;;;;;;;5099980;28;20399;-81
2021/06/05 00:23:57;;;;;;;23.65;21.35;;;;;;;;;;5093874;28;20409;-80
2021/06/05 00:26:24;;;;;;;24.17;21.95;;;;;;;;;;5099516;28;20403;-79
2021/06/05 00:28:50;;;;;;;24.33;22.05;;;;;;;;;;5098382;28;20935;-81
2021/06/05 00:31:16;;;;;;;24.60;22.38;;;;;;;;;;5102089;28;20395;-80
2021/06/05 00:33:43;;;;;;;24.92;22.50;;;;;;;;;;5095212;28;20405;-81
2021/06/05 00:36:11;;;;;;;24.83;22.53;;;;;;;;;;5098691;28;20396;-80
2021/06/05 00:38:39;;;;;;;25.30;22.80;;;;;;;;;;5097177;28;20400;-80
2021/06/05 00:41:09;;;;;;;24.25;22.05;;;;;;;;;;5097631;28;20479;-80
2021/06/05 00:43:39;;;;;;;24.98;22.50;;;;;;;;;;5100099;28;20407;-78
2021/06/05 00:46:05;;;;;;;24.10;21.73;;;;;;;;;;5096518;28;20392;-81
2021/06/05 00:48:32;;;;;;;24.02;21.73;;;;;;;;;;5100902;28;20982;-81
2021/06/05 00:50:59;;;;;;;23.25;20.98;;;;;;;;;;5092297;28;20396;-80
2021/06/05 00:53:28;;;;;;;22.10;20.00;;;;;;;;;;5099351;28;20954;-81
2021/06/05 00:55:58;;;;;;;23.17;21.08;;;;;;;;;;5097217;28;20405;-79
2021/06/05 00:58:28;;;;;;;23.35;21.25;;;;;;;;;;5099653;28;20400;-80
2021/06/05 01:00:57;;;;;;;23.63;21.45;;;;;;;;;;5093093;28;20469;-81
2021/06/05 01:03:24;;;;;;;23.40;21.30;;;;;;;;;;5095405;28;20906;-78
2021/06/05 01:05:57;;;;;;;21.92;20.02;;;;;;;;;;5098031;28;20394;-80
2021/06/05 01:08:30;;;;;;;21.63;19.52;;;;;;;;;;5096286;28;20394;-79
2021/06/05 01:11:12;;;;;;;20.38;18.55;;;;;;;;;;5094040;28;20396;-79
2021/06/05 01:13:44;;;;;;;19.48;17.67;;;;;;;;;;5100712;28;20408;-79
2021/06/05 01:16:15;;;;;;;15.90;14.30;;;;;;;;;;5092115;28;20395;-81
2021/06/05 01:18:47;;;;;;;16.05;14.63;;;;;;;;;;5097099;28;20391;-79
2021/06/05 01:21:33;;;;;;;15.05;13.70;;;;;;;;;;5100023;28;21099;-79
2021/06/05 01:24:13;;;;;;;15.10;13.70;;;;;;;;;;5095627;28;20404;-81
2021/06/05 01:26:43;;;;;;;15.90;14.40;;;;;;;;;;5097859;28;20398;-80
2021/06/05 01:29:15;;;;;;;15.03;13.73;;;;;;;;;;5100590;28;20953;-80
2021/06/05 01:31:44;;;;;;;13.80;12.60;;;;;;;;;;5099874;28;20394;-80
2021/06/05 01:34:11;;;;;;;12.90;11.80;;;;;;;;;;5099127;28;20510;-80
2021/06/05 01:36:43;;;;;;;13.50;12.40;;;;;;;;;;5101965;28;20822;-81
2021/06/05 01:39:13;;;;;;;14.00;12.48;;;;;;;;;;5096750;28;20907;-78
2021/06/05 01:41:43;;;;;;;13.20;12.00;;;;;;;;;;5102007;28;20761;-79
2021/06/05 01:44:11;;;;;;;12.93;11.80;;;;;;;;;;5096334;28;20475;-80
2021/06/05 01:46:41;;;;;;;13.00;11.80;;;;;;;;;;5095136;28;20398;-79
2021/06/05 01:49:08;;;;;;;12.40;11.30;;;;;;;;;;5095953;27;20400;-80
2021/06/05 01:51:37;;;;;;;12.60;11.50;;;;;;;;;;5093976;28;20403;-80
2021/06/05 01:54:09;;;;;;;12.95;11.82;;;;;;;;;;5091624;28;20420;-80
2021/06/05 01:56:38;;;;;;;12.77;11.57;;;;;;;;;;5089807;28;20395;-79
2021/06/05 01:59:08;;;;;;;12.50;11.30;;;;;;;;;;5097709;28;20400;-80
2021/06/05 02:01:34;;;;;;;13.10;12.05;;;;;;;;;;5097559;28;20490;-79
2021/06/05 02:04:01;;;;;;;13.07;11.88;;;;;;;;;;5095687;28;20768;-79
2021/06/05 02:06:28;;;;;;;13.17;11.97;;;;;;;;;;5097340;28;20473;-79
2021/06/05 02:08:54;;;;;;;12.98;11.93;;;;;;;;;;5096109;28;20396;-80
2021/06/05 02:11:24;;;;;;;12.63;11.63;;;;;;;;;;5098091;28;20405;-79
2021/06/05 02:13:54;;;;;;;13.50;12.20;;;;;;;;;;5095896;28;20461;-80
2021/06/05 02:16:26;;;;;;;12.73;11.60;;;;;;;;;;5101034;28;20870;-78
2021/06/05 02:18:56;;;;;;;12.32;11.23;;;;;;;;;;5101151;28;20407;-81
2021/06/05 02:21:24;;;;;;;12.50;11.50;;;;;;;;;;5094785;28;20400;-80
2021/06/05 02:23:53;;;;;;;12.73;11.65;;;;;;;;;;5098372;28;20399;-80
2021/06/05 02:26:22;;;;;;;12.68;11.65;;;;;;;;;;5098661;28;20398;-80
2021/06/05 02:28:52;;;;;;;12.30;11.30;;;;;;;;;;5095577;28;20403;-80
2021/06/05 02:31:19;;;;;;;12.40;11.23;;;;;;;;;;5096910;28;21093;-80
2021/06/05 02:33:48;;;;;;;12.35;11.35;;;;;;;;;;5097156;28;20418;-80
2021/06/05 02:36:15;;;;;;;13.10;12.00;;;;;;;;;;5096595;28;20399;-80
2021/06/05 02:38:46;;;;;;;13.15;12.05;;;;;;;;;;5091608;28;20404;-80
2021/06/05 02:41:15;;;;;;;13.27;12.18;;;;;;;;;;5092746;28;20393;-80
2021/06/05 02:43:43;;;;;;;13.88;12.68;;;;;;;;;;5096492;28;20898;-79
2021/06/05 02:46:13;;;;;;;13.20;12.00;;;;;;;;;;5093941;28;20432;-80
2021/06/05 02:48:44;;;;;;;13.35;12.25;;;;;;;;;;5101047;28;20396;-81
2021/06/05 02:51:13;;;;;;;13.50;12.30;;;;;;;;;;5097397;28;20403;-80
2021/06/05 02:53:39;;;;;;;13.80;12.57;;;;;;;;;;5098991;28;20480;-80
2021/06/05 02:56:06;;;;;;;13.82;12.50;;;;;;;;;;5101045;28;20509;-79
2021/06/05 02:58:32;;;;;;;13.60;12.32;;;;;;;;;;5095142;27;20415;-81
2021/06/05 03:00:59;;;;;;;13.65;12.35;;;;;;;;;;5095691;28;20451;-80
2021/06/05 03:03:26;;;;;;;13.68;12.48;;;;;;;;;;5100154;28;20402;-80
2021/06/05 03:05:53;;;;;;;14.35;13.15;;;;;;;;;;5101765;28;20398;-80
2021/06/05 03:08:24;;;;;;;15.33;13.83;;;;;;;;;;5092863;28;20872;-79
2021/06/05 03:10:51;;;;;;;15.35;13.95;;;;;;;;;;5096111;28;20483;-81
2021/06/05 03:13:19;;;;;;;16.00;14.50;;;;;;;;;;5098282;28;20399;-80
2021/06/05 03:15:45;;;;;;;16.33;14.82;;;;;;;;;;5094862;28;20428;-80
2021/06/05 03:18:13;;;;;;;16.15;14.45;;;;;;;;;;5097287;28;20396;-80
2021/06/05 03:20:42;;;;;;;15.80;14.30;;;;;;;;;;5094199;28;20400;-80
2021/06/05 03:23:12;;;;;;;16.63;14.93;;;;;;;;;;5095867;28;20408;-80
2021/06/05 03:25:40;;;;;;;16.15;14.57;;;;;;;;;;5097817;28;20425;-80
2021/06/05 03:28:07;;;;;;;15.88;14.27;;;;;;;;;;5098079;28;20396;-80
2021/06/05 03:30:36;;;;;;;15.73;14.07;;;;;;;;;;5094977;28;20467;-81
2021/06/05 03:33:03;;;;;;;16.10;14.48;;;;;;;;;;5095100;28;20400;-80
2021/06/05 03:35:30;;;;;;;14.85;13.50;;;;;;;;;;5096777;28;20772;-80
2021/06/05 03:37:57;;;;;;;14.68;13.35;;;;;;;;;;5100718;28;20401;-79
2021/06/05 03:40:28;;;;;;;13.93;12.68;;;;;;;;;;5094684;28;20390;-80
2021/06/05 03:42:56;;;;;;;13.98;12.68;;;;;;;;;;5097185;28;20403;-79
2021/06/05 03:45:23;;;;;;;13.57;12.38;;;;;;;;;;5095004;28;20410;-80
2021/06/05 03:47:50;;;;;;;13.60;12.40;;;;;;;;;;5100779;28;20391;-79
2021/06/05 03:50:20;;;;;;;13.18;11.68;;;;;;;;;;5093538;28;20403;-80
2021/06/05 03:52:46;;;;;;;12.90;11.80;;;;;;;;;;5100425;28;20398;-80
2021/06/05 03:55:13;;;;;;;12.80;11.60;;;;;;;;;;5096118;28;20449;-80
2021/06/05 03:57:40;;;;;;;13.00;11.70;;;;;;;;;;5099331;28;20966;-81
2021/06/05 04:00:11;;;;;;;12.50;11.38;;;;;;;;;;5098005;28;20399;-80
2021/06/05 04:02:37;;;;;;;12.68;11.38;;;;;;;;;;5095920;28;20399;-80
2021/06/05 04:05:05;;;;;;;12.32;11.18;;;;;;;;;;5099008;28;20410;-79
2021/06/05 04:07:31;;;;;;;12.93;11.70;;;;;;;;;;5097717;28;20395;-80
2021/06/05 04:09:58;;;;;;;11.68;10.68;;;;;;;;;;5092833;28;20399;-80
2021/06/05 04:12:24;;;;;;;12.55;11.25;;;;;;;;;;5098514;28;20390;-80
2021/06/05 04:14:51;;;;;;;11.90;10.80;;;;;;;;;;5101377;28;20418;-79
2021/06/05 04:17:19;;;;;;;12.50;11.40;;;;;;;;;;5103343;28;20399;-79
2021/06/05 04:19:45;;;;;;;12.03;11.03;;;;;;;;;;5098144;28;20472;-80
2021/06/05 04:22:12;;;;;;;12.57;11.15;;;;;;;;;;5101053;28;20957;-78
2021/06/05 04:24:39;;;;;;;12.63;11.45;;;;;;;;;;5102280;28;20400;-79
2021/06/05 04:27:07;;;;;;;12.60;11.30;;;;;;;;;;5101225;28;20391;-79
2021/06/05 04:29:34;;;;;;;12.75;11.55;;;;;;;;;;5098533;27;20390;-80
2021/06/05 04:32:01;;;;;;;12.20;11.10;;;;;;;;;;5099606;28;20447;-81
2021/06/05 04:34:29;;;;;;;12.20;11.20;;;;;;;;;;5103011;28;20421;-80
2021/06/05 04:36:55;;;;;;;12.57;11.30;;;;;;;;;;5100037;28;20391;-80
2021/06/05 04:39:22;;;;;;;12.65;11.35;;;;;;;;;;5095068;28;20467;-80
2021/06/05 04:41:49;;;;;;;12.20;11.05;;;;;;;;;;5099535;28;20413;-80
2021/06/05 04:44:16;;;;;;;12.85;11.63;;;;;;;;;;5102435;27;20477;-80
2021/06/05 04:46:42;;;;;;;12.25;11.05;;;;;;;;;;5099417;28;20409;-80
2021/06/05 04:49:09;;;;;;;12.57;11.30;;;;;;;;;;5100156;28;20399;-80
2021/06/05 04:51:38;;;;;;;12.48;11.38;;;;;;;;;;5097385;28;20445;-79
2021/06/05 04:54:06;;;;;;;12.50;11.40;;;;;;;;;;5099238;28;20471;-80
2021/06/05 04:56:37;;;;;;;12.65;11.45;;;;;;;;;;5094882;28;20398;-78
2021/06/05 04:59:05;;;;;;;12.57;11.30;;;;;;;;;;5099048;28;20395;-80
2021/06/05 05:01:32;;;;;;;12.17;11.10;;;;;;;;;;5102193;28;20401;-80
2021/06/05 05:03:58;;;;;;;12.40;11.30;;;;;;;;;;5100408;28;20415;-81
2021/06/05 05:06:25;;;;;;;12.30;11.20;;;;;;;;;;5082894;22;20421;-83
2021/06/05 05:08:54;;;;;;;12.45;11.35;;;;;;;;;;5053661;28;20393;-83
2021/06/05 05:11:21;;;;;;;12.63;11.43;;;;;;;;;;5021243;28;20401;-82
2021/06/05 05:13:48;;;;;;;11.65;10.45;;;;;;;;;;5050555;28;20422;-85
2021/06/05 05:16:15;;;;;;;12.85;10.80;;;;;;;;;;5057718;28;20813;-84
2021/06/05 05:18:45;;;;;;;11.70;10.60;;;;;;;;;;5054465;28;20420;-85
2021/06/05 05:21:12;;;;;;;11.20;10.13;;;;;;;;;;5050399;28;20396;-85
2021/06/05 05:23:39;;;;;;;10.23;9.23;;;;;;;;;;5044211;28;20404;-84
2021/06/05 05:26:08;;;;;;;10.15;9.15;;;;;;;;;;5040985;28;20408;-84
2021/06/05 05:28:34;;;;;;;10.20;9.20;;;;;;;;;;5044381;28;20399;-85
2021/06/05 05:31:04;;;;;;;9.68;8.75;;;;;;;;;;5046834;28;20395;-83
2021/06/05 05:33:34;;;;;;;10.40;9.40;;;;;;;;;;5036743;28;20400;-83
2021/06/05 05:36:01;;;;;;;9.60;8.77;;;;;;;;;;5054087;28;20403;-83
2021/06/05 05:38:27;;;;;;;10.57;9.52;;;;;;;;;;5061916;28;20412;-83
2021/06/05 05:40:54;;;;;;;10.13;9.13;;;;;;;;;;5054025;28;20396;-83
2021/06/05 05:43:22;;;;;;;9.80;8.90;;;;;;;;;;5041314;28;20413;-83
2021/06/05 05:45:49;;;;;;;10.18;9.18;;;;;;;;;;5041379;28;20399;-83
2021/06/05 05:48:17;;;;;;;10.07;9.18;;;;;;;;;;5038852;28;20964;-82
2021/06/05 05:50:45;;;;;;;9.93;8.93;;;;;;;;;;5040398;28;20405;-82
2021/06/05 05:53:12;;;;;;;9.73;8.93;;;;;;;;;;5039602;28;20405;-85
2021/06/05 05:55:39;;;;;;;10.65;9.55;;;;;;;;;;5037781;28;21018;-84
2021/06/05 05:58:08;;;;;;;10.37;9.37;;;;;;;;;;5039005;28;20424;-84
2021/06/05 06:00:39;;;;;;;11.23;10.20;;;;;;;;;;5038386;28;20933;-84
2021/06/05 06:03:07;;;;;;;13.77;10.70;;;;;;;;;;5035368;28;20406;-84
2021/06/05 06:05:34;;;;;;;12.38;11.10;;;;;;;;;;5034109;28;20413;-84
2021/06/05 06:08:00;;;;;;;12.90;11.60;;;;;;;;;;5032926;28;20423;-84
2021/06/05 06:10:27;;;;;;;12.75;11.50;;;;;;;;;;5038087;28;20422;-83
2021/06/05 06:12:54;;;;;;;12.88;11.70;;;;;;;;;;5035564;28;20785;-84
2021/06/05 06:15:24;;;;;;;13.82;12.60;;;;;;;;;;5038477;28;20441;-84
2021/06/05 06:17:53;;;;;;;13.75;12.30;;;;;;;;;;5035722;28;20457;-84
2021/06/05 06:20:22;;;;;;;14.00;12.63;;;;;;;;;;5040679;28;20812;-84
2021/06/05 06:22:48;;;;;;;15.70;14.00;;;;;;;;;;5036985;28;20857;-84
2021/06/05 06:25:20;;;;;;;14.85;13.38;;;;;;;;;;5034846;28;20413;-84
2021/06/05 06:27:47;;;;;;;15.10;13.57;;;;;;;;;;5032252;28;20438;-84
2021/06/05 06:30:18;;;;;;;15.77;14.27;;;;;;;;;;5038944;28;20404;-84
2021/06/05 06:32:50;;;;;;;15.77;14.30;;;;;;;;;;5017194;28;21070;-84
2021/06/05 06:35:19;;;;;;;15.43;14.05;;;;;;;;;;5036805;28;20420;-84
2021/06/05 06:37:46;;;;;;;15.23;13.30;;;;;;;;;;5037295;28;20404;-84
2021/06/05 06:40:13;;;;;;;14.75;13.38;;;;;;;;;;5039627;28;21941;-84
2021/06/05 06:42:40;;;;;;;14.48;13.18;;;;;;;;;;5042891;28;20399;-84
2021/06/05 06:45:07;;;;;;;15.07;13.57;;;;;;;;;;5039276;28;20412;-84
2021/06/05 06:47:33;;;;;;;15.57;14.05;;;;;;;;;;5039592;28;20919;-84
2021/06/05 06:50:00;;;;;;;15.77;14.10;;;;;;;;;;5037984;28;20395;-84
2021/06/05 06:52:28;;;;;;;14.70;13.23;;;;;;;;;;5042386;28;20951;-84
2021/06/05 06:54:54;;;;;;;14.25;12.85;;;;;;;;;;5036000;28;20427;-84
2021/06/05 06:57:22;;;;;;;16.10;14.55;;;;;;;;;;5040202;28;20404;-84
2021/06/05 06:59:49;;;;;;;15.45;14.05;;;;;;;;;;5040032;28;20408;-84
2021/06/05 07:02:15;;;;;;;15.30;13.80;;;;;;;;;;5036539;28;20408;-84
2021/06/05 07:04:42;;;;;;;16.48;14.77;;;;;;;;;;5035576;28;20400;-84
2021/06/05 07:07:09;;;;;;;17.08;15.32;;;;;;;;;;5023872;28;20424;-84
2021/06/05 07:09:36;;;;;;;17.13;15.40;;;;;;;;;;5023525;28;20408;-84
2021/06/05 07:12:04;;;;;;;16.20;14.75;;;;;;;;;;5024094;28;20429;-84
2021/06/05 07:14:30;;;;;;;16.85;15.25;;;;;;;;;;5011143;28;20497;-84
2021/06/05 07:17:00;;;;;;;16.25;14.75;;;;;;;;;;5016709;28;20410;-84
2021/06/05 07:19:28;;;;;;;16.90;15.20;;;;;;;;;;5019682;28;20434;-84
2021/06/05 07:21:56;;;;;;;17.08;15.10;;;;;;;;;;5025580;28;20443;-84
2021/06/05 07:24:23;;;;;;;17.45;15.60;;;;;;;;;;5019541;28;20400;-84
2021/06/05 07:26:53;;;;;;;17.03;15.37;;;;;;;;;;5027746;28;21149;-84
2021/06/05 07:29:20;;;;;;;18.35;16.58;;;;;;;;;;5032510;28;20396;-84
2021/06/05 07:31:51;;;;;;;17.40;15.70;;;;;;;;;;5030936;28;20463;-84
2021/06/05 07:34:21;;;;;;;17.13;15.35;;;;;;;;;;5024956;28;20427;-84
2021/06/05 07:36:50;;;;;;;15.90;14.38;;;;;;;;;;5025176;28;20403;-84
2021/06/05 07:39:20;;;;;;;15.40;13.75;;;;;;;;;;5023044;28;20408;-84
2021/06/05 07:41:48;;;;;;;17.70;15.85;;;;;;;;;;5034897;28;20481;-85
2021/06/05 07:44:18;;;;;;;16.90;15.13;;;;;;;;;;5025464;28;20416;-85
2021/06/05 07:46:49;;;;;;;14.45;12.27;;;;;;;;;;5025236;28;20405;-84
2021/06/05 07:49:18;;;;;;;13.45;12.05;;;;;;;;;;5033336;28;20431;-88
2021/06/05 07:51:46;;;;;;;13.80;12.23;;;;;;;;;;5032595;28;20401;-87
2021/06/05 07:54:14;;;;;;;13.60;12.20;;;;;;;;;;5038546;28;20903;-86
2021/06/05 07:56:41;;;;;;;14.82;13.25;;;;;;;;;;5026354;28;20413;-86
2021/06/05 07:59:08;;;;;;;11.88;10.57;;;;;;;;;;5029930;28;21268;-86
2021/06/05 08:01:36;;;;;;;10.43;9.38;;;;;;;;;;5034805;28;20405;-87
2021/06/05 08:04:02;;;;;;;10.55;9.25;;;;;;;;;;5034272;28;20413;-87
2021/06/05 08:06:28;;;;;;;10.65;9.57;;;;;;;;;;5032853;28;20408;-86
2021/06/05 08:08:55;;;;;;;11.73;10.57;;;;;;;;;;5027871;28;20392;-87
2021/06/05 08:11:22;;;;;;;12.43;11.18;;;;;;;;;;5034403;28;20400;-87
2021/06/05 08:13:49;;;;;;;14.38;13.07;;;;;;;;;;5034602;28;20736;-84
2021/06/05 08:16:16;;;;;;;14.88;13.38;;;;;;;;;;5033661;28;20410;-85
2021/06/05 08:18:44;;;;;;;13.48;12.02;;;;;;;;;;5033886;28;20409;-86
2021/06/05 08:21:13;;;;;;;14.70;13.20;;;;;;;;;;5033123;28;20406;-85
2021/06/05 08:23:40;;;;;;;14.10;12.35;;;;;;;;;;5033436;28;20406;-85
2021/06/05 08:26:09;;;;;;;13.20;11.82;;;;;;;;;;5036308;28;20936;-85
2021/06/05 08:28:38;;;;;;;13.82;12.40;;;;;;;;;;5027639;28;20893;-84
2021/06/05 08:31:08;;;;;;;15.10;13.60;;;;;;;;;;5034815;28;20408;-84
2021/06/05 08:33:35;;;;;;;14.10;12.63;;;;;;;;;;5032396;28;20402;-84
2021/06/05 08:36:03;;;;;;;14.43;12.93;;;;;;;;;;5031603;28;20985;-86
2021/06/05 08:38:30;;;;;;;16.80;15.10;;;;;;;;;;5030661;28;20416;-86
2021/06/05 08:41:02;;;;;;;15.70;13.02;;;;;;;;;;5031359;28;20409;-85
2021/06/05 08:43:36;;;;;;;13.85;12.55;;;;;;;;;;5030186;28;20823;-85
2021/06/05 08:46:06;;;;;;;15.68;13.52;;;;;;;;;;5030258;28;20467;-86
2021/06/05 08:48:34;;;;;;;14.95;11.98;;;;;;;;;;5028447;28;20907;-85
2021/06/05 08:51:14;;;;;;;15.95;14.32;;;;;;;;;;5029517;28;20752;-86
2021/06/05 08:53:42;;;;;;;13.60;12.20;;;;;;;;;;5027519;28;20402;-86
2021/06/05 08:56:16;;;;;;;13.32;12.10;;;;;;;;;;5021924;28;20400;-86
2021/06/05 08:58:46;;;;;;;13.80;12.45;;;;;;;;;;5017289;28;20414;-86
2021/06/05 09:01:21;;;;;;;12.32;11.13;;;;;;;;;;5017777;28;20411;-86
2021/06/05 09:03:57;;;;;;;11.63;10.43;;;;;;;;;;5020695;28;20427;-86
2021/06/05 09:06:34;;;;;;;13.02;10.18;;;;;;;;;;5024579;28;20737;-86
2021/06/05 09:09:03;;;;;;;11.32;10.23;;;;;;;;;;5033634;28;20423;-86
2021/06/05 09:11:31;;;;;;;13.90;11.97;;;;;;;;;;5038860;28;20565;-86
2021/06/05 09:13:59;;;;;;;12.70;11.30;;;;;;;;;;5035822;28;20407;-86
2021/06/05 09:16:45;;;;;;;13.55;10.88;;;;;;;;;;5036951;28;20502;-86
2021/06/05 09:19:27;;;;;;;11.60;10.40;;;;;;;;;;5036959;28;20498;-86
2021/06/05 09:22:15;;;;;;;13.43;12.23;;;;;;;;;;5030006;28;20414;-87
2021/06/05 09:24:45;;;;;;;13.43;12.18;;;;;;;;;;5037734;28;20424;-86
2021/06/05 09:27:14;;;;;;;14.98;13.50;;;;;;;;;;5039408;28;20483;-86
2021/06/05 09:29:56;;;;;;;15.73;13.60;;;;;;;;;;5036805;28;20407;-78
2021/06/05 09:32:26;;;;;;;15.80;14.32;;;;;;;;;;5026717;28;20430;-86
2021/06/05 09:34:56;;;;;;;15.13;13.50;;;;;;;;;;5030002;28;20418;-86
2021/06/05 09:37:43;;;;;;;13.02;11.63;;;;;;;;;;5026981;28;20411;-86
2021/06/05 09:40:26;;;;;;;10.65;9.48;;;;;;;;;;5030162;28;20919;-86
2021/06/05 09:42:56;;;;;;;12.02;9.95;;;;;;;;;;5028322;28;20805;-86
2021/06/05 09:45:30;;;;;;;13.25;11.95;;;;;;;;;;5035010;28;20656;-86
2021/06/05 09:48:20;;;;;;;11.88;10.88;;;;;;;;;;5035128;28;20407;-86
2021/06/05 09:50:51;;;;;;;11.30;9.77;;;;;;;;;;5041152;28;20750;-86
2021/06/05 09:53:28;;;;;;;9.93;8.98;;;;;;;;;;5045219;28;20406;-86
2021/06/05 09:55:58;;;;;;;10.57;9.45;;;;;;;;;;5043170;28;20871;-79
2021/06/05 09:58:41;;;;;;;12.13;11.13;;;;;;;;;;5042792;28;20951;-82
2021/06/05 10:01:21;;;;;;;11.07;10.00;;;;;;;;;;5043740;28;20421;-84
2021/06/05 10:03:51;;;;;;;9.82;8.85;;;;;;;;;;5044774;28;20406;-84
2021/06/05 10:06:36;;;;;;;10.52;9.25;;;;;;;;;;5045697;28;20398;-84
2021/06/05 10:09:36;;;;;;;9.95;8.98;;;;;;;;;;5044148;28;20404;-84
2021/06/05 10:12:08;;;;;;;10.37;9.33;;;;;;;;;;5042118;28;20500;-79
2021/06/05 10:14:51;;;;;;;10.35;9.35;;;;;;;;;;5047397;28;20466;-80
2021/06/05 10:17:30;;;;;;;9.07;8.17;;;;;;;;;;5044536;28;20898;-80
2021/06/05 10:20:05;;;;;;;10.20;9.35;;;;;;;;;;5041597;28;20404;-80
2021/06/05 10:22:36;;;;;;;10.48;8.90;;;;;;;;;;5043989;28;20764;-80
2021/06/05 10:25:16;;;;;;;10.48;9.48;;;;;;;;;;5042190;28;20792;-80
2021/06/05 10:27:47;;;;;;;9.87;8.33;;;;;;;;;;5045492;28;20880;-85
2021/06/05 10:30:40;;;;;;;10.80;8.35;;;;;;;;;;5044421;28;20553;-81
2021/06/05 10:33:15;;;;;;;11.52;10.32;;;;;;;;;;5043764;28;20404;-85
2021/06/05 10:35:44;;;;;;;11.60;10.40;;;;;;;;;;5041865;28;20891;-88
2021/06/05 10:38:18;;;;;;;12.50;11.40;;;;;;;;;;5045006;28;20517;-89
2021/06/05 10:40:48;;;;;;;13.83;11.63;;;;;;;;;;5042557;28;20402;-88
2021/06/05 10:43:16;;;;;;;50.65;40.67;;;;;;;;;;5037996;28;20410;-79
2021/06/05 10:45:47;;;;;;;18.77;16.77;;;;;;;;;;5033028;28;20413;-79
2021/06/05 10:48:24;;;;;;;134.37;105.67;;;;;;;;;;5037572;28;20407;-79
2021/06/05 10:51:02;;;;;;;18.13;16.33;;;;;;;;;;5037816;28;20432;-78
2021/06/05 10:53:33;;;;;;;16.33;14.73;;;;;;;;;;5037834;28;20412;-81
2021/06/05 10:56:13;;;;;;;9.98;9.05;;;;;;;;;;5039608;28;20764;-78
2021/06/05 10:58:45;;;;;;;11.00;8.57;;;;;;;;;;5040254;28;20412;-79
2021/06/05 11:01:46;;;;;;;17.67;11.40;;;;;;;;;;5041183;28;20409;-82
2021/06/05 11:04:42;;;;;;;8.77;7.97;;;;;;;;;;5041678;28;20401;-79
2021/06/05 11:07:28;;;;;;;9.52;8.73;;;;;;;;;;5040164;28;20421;-83
2021/06/05 11:09:58;;;;;;;9.77;8.80;;;;;;;;;;5043913;28;20403;-81
2021/06/05 11:12:54;;;;;;;9.85;8.95;;;;;;;;;;5043419;28;20952;-82
2021/06/05 11:15:59;;;;;;;9.98;8.90;;;;;;;;;;5046303;28;20426;-82
2021/06/05 11:18:37;;;;;;;9.35;8.45;;;;;;;;;;5050323;28;20422;-85
2021/06/05 11:21:40;;;;;;;9.70;8.70;;;;;;;;;;5044905;28;20404;-84
2021/06/05 11:24:23;;;;;;;10.63;8.53;;;;;;;;;;5046030;28;20404;-85
2021/06/05 11:26:52;;;;;;;10.57;9.57;;;;;;;;;;5054849;28;21086;-85
2021/06/05 11:30:00;;;;;;;12.07;10.27;;;;;;;;;;5061218;28;20411;-84
2021/06/05 11:32:57;;;;;;;10.38;9.30;;;;;;;;;;5053084;28;20396;-84
2021/06/05 11:35:45;;;;;;;9.52;8.70;;;;;;;;;;5038717;28;20432;-84
2021/06/05 11:38:34;;;;;;;10.77;9.75;;;;;;;;;;5041015;28;20399;-86
2021/06/05 11:41:04;;;;;;;10.65;9.43;;;;;;;;;;5035016;28;20519;-85
2021/06/05 11:43:43;;;;;;;10.93;8.93;;;;;;;;;;5034050;28;20459;-84
2021/06/05 11:46:32;;;;;;;10.40;9.40;;;;;;;;;;5028199;28;20405;-82
2021/06/05 11:49:00;;;;;;;10.50;9.47;;;;;;;;;;5038748;28;20409;-84
2021/06/05 11:51:43;;;;;;;8.52;7.55;;;;;;;;;;5041752;28;20413;-84
2021/06/05 11:54:23;;;;;;;8.97;8.07;;;;;;;;;;5038581;28;20407;-84
2021/06/05 11:56:55;;;;;;;9.43;8.32;;;;;;;;;;5038445;28;20426;-83
2021/06/05 11:59:33;;;;;;;9.10;8.30;;;;;;;;;;5037631;28;20942;-83
2021/06/05 12:02:12;;;;;;;8.32;7.53;;;;;;;;;;5038474;28;20417;-84
2021/06/05 12:04:48;;;;;;;8.20;7.43;;;;;;;;;;5041874;28;20492;-82
2021/06/05 12:07:35;;;;;;;9.27;7.05;;;;;;;;;;5042448;28;20413;-83
2021/06/05 12:10:05;;;;;;;8.40;7.60;;;;;;;;;;5040154;28;20426;-83
2021/06/05 12:12:37;;;;;;;8.47;7.27;;;;;;;;;;5053351;28;20439;-83
2021/06/05 12:15:11;;;;;;;9.25;8.30;;;;;;;;;;5037652;28;20833;-83
2021/06/05 12:17:41;;;;;;;8.65;7.65;;;;;;;;;;5038857;28;20403;-83
2021/06/05 12:20:16;;;;;;;9.47;7.67;;;;;;;;;;5040667;28;20419;-84
2021/06/05 12:22:45;;;;;;;7.72;6.93;;;;;;;;;;5043964;28;20743;-83
2021/06/05 12:25:33;;;;;;;8.77;7.90;;;;;;;;;;5039224;28;20411;-85
2021/06/05 12:28:09;;;;;;;7.75;7.03;;;;;;;;;;5042649;28;20532;-83
2021/06/05 12:30:40;;;;;;;10.77;7.38;;;;;;;;;;5024666;28;20962;-83
2021/06/05 12:33:11;;;;;;;9.02;7.00;;;;;;;;;;5042471;28;20411;-83
2021/06/05 12:35:40;;;;;;;7.93;6.65;;;;;;;;;;5041967;28;20415;-83
2021/06/05 12:38:08;;;;;;;6.53;5.83;;;;;;;;;;5037778;28;20401;-83
2021/06/05 12:40:41;;;;;;;6.68;6.00;;;;;;;;;;5041705;28;20534;-83
2021/06/05 12:43:10;;;;;;;8.57;5.90;;;;;;;;;;5038641;28;21378;-83
2021/06/05 12:45:37;;;;;;;9.07;6.90;;;;;;;;;;5035739;28;20501;-84
2021/06/05 12:48:05;;;;;;;6.63;5.93;;;;;;;;;;5041349;28;20457;-79
2021/06/05 12:50:36;;;;;;;9.52;6.20;;;;;;;;;;5034160;28;20402;-83
2021/06/05 12:53:05;;;;;;;7.15;6.55;;;;;;;;;;5037399;28;20412;-85
2021/06/05 12:55:38;;;;;;;7.78;6.70;;;;;;;;;;5039495;28;20423;-82
2021/06/05 12:58:06;;;;;;;5.80;5.32;;;;;;;;;;5049231;28;20408;-84
2021/06/05 13:00:39;;;;;;;8.02;6.38;;;;;;;;;;5045484;28;20485;-84
2021/06/05 13:03:38;;;;;;;9.38;6.97;;;;;;;;;;5047322;28;20404;-84
2021/06/05 13:06:23;;;;;;;6.72;5.55;;;;;;;;;;5037590;28;20418;-84
2021/06/05 13:08:54;;;;;;;6.90;5.75;;;;;;;;;;5040458;28;20398;-83
2021/06/05 13:11:42;;;;;;;7.68;6.03;;;;;;;;;;5045147;28;21235;-84
2021/06/05 13:14:19;;;;;;;7.82;6.75;;;;;;;;;;5038594;28;20415;-83
2021/06/05 13:16:49;;;;;;;6.63;6.00;;;;;;;;;;5041176;28;20414;-84
2021/06/05 13:19:19;;;;;;;6.70;5.80;;;;;;;;;;5035860;28;20458;-83
2021/06/05 13:22:05;;;;;;;6.50;6.00;;;;;;;;;;5034710;28;20426;-84
2021/06/05 13:24:33;;;;;;;9.23;5.13;;;;;;;;;;5035543;28;20781;-84
2021/06/05 13:27:18;;;;;;;5.25;4.75;;;;;;;;;;5035378;28;20480;-84
2021/06/05 13:29:49;;;;;;;5.75;5.07;;;;;;;;;;5035146;28;20418;-84
2021/06/05 13:32:41;;;;;;;5.90;5.22;;;;;;;;;;5035601;28;20433;-84
2021/06/05 13:35:15;;;;;;;5.73;5.00;;;;;;;;;;5036235;28;20427;-84
2021/06/05 13:37:55;;;;;;;6.43;5.35;;;;;;;;;;5037754;28;20405;-83
2021/06/05 13:40:23;;;;;;;6.40;5.30;;;;;;;;;;5032392;28;20433;-83
2021/06/05 13:42:52;;;;;;;8.27;5.60;;;;;;;;;;5036866;28;20397;-84
2021/06/05 13:45:23;;;;;;;9.80;6.10;;;;;;;;;;5033855;28;20410;-83
2021/06/05 13:47:52;;;;;;;7.43;5.50;;;;;;;;;;5038410;28;20884;-83
2021/06/05 13:50:23;;;;;;;6.05;5.45;;;;;;;;;;5036723;28;20408;-84
2021/06/05 13:52:53;;;;;;;7.85;5.68;;;;;;;;;;5038934;28;20837;-85
2021/06/05 13:55:28;;;;;;;6.25;5.60;;;;;;;;;;5036253;28;20428;-84
2021/06/05 13:57:57;;;;;;;6.03;5.30;;;;;;;;;;5047218;28;20401;-85
2021/06/05 14:00:27;;;;;;;6.13;5.20;;;;;;;;;;5032671;28;20408;-83
2021/06/05 14:02:56;;;;;;;8.93;5.15;;;;;;;;;;5044150;28;20410;-84
2021/06/05 14:05:24;;;;;;;6.23;4.67;;;;;;;;;;5042663;28;20412;-85
2021/06/05 14:07:55;;;;;;;7.40;5.03;;;;;;;;;;5006105;28;21934;-84
2021/06/05 14:10:24;;;;;;;5.25;4.75;;;;;;;;;;5027824;28;20401;-85
2021/06/05 14:12:52;;;;;;;5.20;4.70;;;;;;;;;;5024552;28;20483;-83
2021/06/05 14:15:23;;;;;;;7.20;4.20;;;;;;;;;;5021595;28;20898;-84
2021/06/05 14:17:54;;;;;;;6.68;4.22;;;;;;;;;;5030823;28;20399;-84
2021/06/05 14:20:25;;;;;;;7.63;4.18;;;;;;;;;;5033595;28;20412;-84
2021/06/05 14:22:55;;;;;;;5.57;4.50;;;;;;;;;;5024280;28;20412;-84
2021/06/05 14:25:24;;;;;;;6.38;4.10;;;;;;;;;;5034815;28;21069;-83
2021/06/05 14:27:52;;;;;;;8.17;4.30;;;;;;;;;;5017925;28;21067;-84
2021/06/05 14:30:23;;;;;;;5.17;4.20;;;;;;;;;;5022021;28;21005;-85
2021/06/05 14:32:51;;;;;;;8.45;4.40;;;;;;;;;;5021365;28;20412;-83
2021/06/05 14:35:19;;;;;;;4.77;4.20;;;;;;;;;;5025578;28;20436;-84
2021/06/05 14:37:46;;;;;;;5.88;4.10;;;;;;;;;;5019830;28;20413;-84
2021/06/05 14:40:16;;;;;;;5.78;4.40;;;;;;;;;;5023882;28;20465;-83
2021/06/05 14:42:44;;;;;;;5.77;4.00;;;;;;;;;;5020835;28;20449;-85
2021/06/05 14:45:14;;;;;;;8.00;3.90;;;;;;;;;;5021410;28;20417;-86
2021/06/05 14:47:42;;;;;;;5.50;3.43;;;;;;;;;;5029256;28;20474;-85